createdAt,value
2023-05-12T00:01:41.892Z,96889.19
2023-05-12T00:03:44.614Z,96891.81
2023-05-12T00:05:47.406Z,96890.94
2023-05-12T00:07:49.950Z,96883.19
2023-05-12T00:09:52.580Z,96892.75
2023-05-12T00:11:55.174Z,96883.19
2023-05-12T00:13:57.815Z,96877.19
2023-05-12T00:16:00.617Z,96879.81
2023-05-12T00:18:04.823Z,96876.44
2023-05-12T00:20:08.501Z,96877.38
2023-05-12T00:22:11.433Z,96871.44
2023-05-12T00:24:14.584Z,96875.81
2023-05-12T00:26:17.526Z,96874.06
2023-05-12T00:28:20.383Z,96869.69
2023-05-12T00:30:23.230Z,96875.00
2023-05-12T00:32:26.343Z,96872.47
2023-05-12T00:34:30.774Z,96869.94
2023-05-12T00:36:33.402Z,96868.31
2023-05-12T00:38:37.406Z,96868.31
2023-05-12T00:40:40.714Z,96877.25
2023-05-12T00:42:43.615Z,96871.53
2023-05-12T00:44:47.198Z,96864.72
2023-05-12T00:46:50.247Z,96872.59
2023-05-12T00:48:53.501Z,96867.53
2023-05-12T00:50:58.592Z,96871.00
2023-05-12T00:53:02.326Z,96868.00
2023-05-12T00:55:06.603Z,96870.03
2023-05-12T00:57:09.358Z,96865.13
2023-05-12T00:59:11.900Z,96863.50
2023-05-12T01:01:14.759Z,96865.44
2023-05-12T01:03:17.688Z,96870.59
2023-05-12T01:05:20.521Z,96865.44
2023-05-12T01:07:26.694Z,96865.69
2023-05-12T01:09:29.274Z,96868.81
2023-05-12T01:11:31.839Z,96869.16
2023-05-12T01:13:34.521Z,96867.31
2023-05-12T01:15:40.567Z,96871.50
2023-05-12T01:17:57.254Z,96868.03
2023-05-12T01:20:02.847Z,96866.38
2023-05-12T01:22:06.171Z,96860.97
2023-05-12T01:24:12.255Z,96864.34
2023-05-12T01:26:16.487Z,96857.31
2023-05-12T01:28:20.336Z,96867.34
2023-05-12T01:30:25.191Z,96868.03
2023-05-12T01:32:27.972Z,96866.06
2023-05-12T01:34:30.663Z,96865.91
2023-05-12T01:36:33.259Z,96861.59
2023-05-12T01:38:35.958Z,96863.94
2023-05-12T01:40:38.523Z,96862.00
2023-05-12T01:42:43.381Z,96864.34
2023-05-12T01:44:46.219Z,96866.72
2023-05-12T01:46:49.571Z,96858.44
2023-05-12T01:48:52.267Z,96862.69
2023-05-12T01:50:54.865Z,96869.59
2023-05-12T01:52:57.402Z,96864.34
2023-05-12T01:55:00.033Z,96870.34
2023-05-12T01:57:02.602Z,96864.09
2023-05-12T01:59:06.603Z,96867.50
2023-05-12T02:01:09.262Z,96870.03
2023-05-12T02:03:11.957Z,96867.25
2023-05-12T02:05:14.723Z,96869.78
2023-05-12T02:07:18.329Z,96865.47
2023-05-12T02:09:22.498Z,96871.56
2023-05-12T02:11:25.066Z,96868.09
2023-05-12T02:13:28.461Z,96868.00
2023-05-12T02:15:32.476Z,96869.72
2023-05-12T02:17:35.099Z,96860.09
2023-05-12T02:19:37.676Z,96858.22
2023-05-12T02:21:40.230Z,96867.59
2023-05-12T02:23:42.825Z,96862.56
2023-05-12T02:25:45.437Z,96860.84
2023-05-12T02:27:48.035Z,96862.63
2023-05-12T02:29:50.616Z,96859.94
2023-05-12T02:31:54.555Z,96861.53
2023-05-12T02:33:57.174Z,96867.59
2023-05-12T02:35:59.755Z,96865.75
2023-05-12T02:38:02.371Z,96870.91
2023-05-12T02:40:05.927Z,96870.91
2023-05-12T02:42:08.775Z,96871.00
2023-05-12T02:44:11.320Z,96864.00
2023-05-12T02:46:13.919Z,96864.00
2023-05-12T02:48:17.872Z,96861.28
2023-05-12T02:50:21.747Z,96856.47
2023-05-12T02:52:24.529Z,96860.78
2023-05-12T02:54:27.078Z,96854.78
2023-05-12T02:56:31.878Z,96860.03
2023-05-12T02:58:35.943Z,96868.69
2023-05-12T03:00:38.513Z,96862.56
2023-05-12T03:02:41.288Z,96866.84
2023-05-12T03:04:45.375Z,96876.41
2023-05-12T03:06:47.999Z,96870.31
2023-05-12T03:08:50.682Z,96864.13
2023-05-12T03:10:53.296Z,96865.06
2023-05-12T03:12:55.855Z,96862.56
2023-05-12T03:14:58.649Z,96858.31
2023-05-12T03:17:01.290Z,96863.53
2023-05-12T03:19:05.274Z,96865.38
2023-05-12T03:21:09.389Z,96866.25
2023-05-12T03:23:11.933Z,96858.41
2023-05-12T03:25:15.705Z,96862.78
2023-05-12T03:27:18.267Z,96860.41
2023-05-12T03:29:20.811Z,96853.59
2023-05-12T03:31:23.581Z,96857.78
2023-05-12T03:33:26.180Z,96856.94
2023-05-12T03:35:28.912Z,96860.41
2023-05-12T03:37:33.036Z,96859.50
2023-05-12T03:39:35.698Z,96857.72
2023-05-12T03:41:38.294Z,96858.47
2023-05-12T03:43:40.886Z,96854.09
2023-05-12T03:45:43.601Z,96856.63
2023-05-12T03:47:46.229Z,96856.63
2023-05-12T03:49:51.156Z,96854.88
2023-05-12T03:51:53.725Z,96855.78
2023-05-12T03:53:57.657Z,96859.25
2023-05-12T03:56:05.218Z,96849.69
2023-05-12T03:58:09.558Z,96853.25
2023-05-12T04:00:13.383Z,96853.16
2023-05-12T04:02:16.019Z,96850.53
2023-05-12T04:04:19.111Z,96862.72
2023-05-12T04:06:21.653Z,96850.47
2023-05-12T04:08:24.197Z,96847.94
2023-05-12T04:10:28.213Z,96854.00
2023-05-12T04:12:30.802Z,96852.41
2023-05-12T04:14:42.160Z,96850.97
2023-05-12T04:16:46.022Z,96849.34
2023-05-12T04:18:49.382Z,96850.38
2023-05-12T04:20:51.994Z,96855.59
2023-05-12T04:22:54.558Z,96854.59
2023-05-12T04:24:57.157Z,96854.59
2023-05-12T04:27:01.339Z,96850.97
2023-05-12T04:29:03.913Z,96857.44
2023-05-12T04:31:06.643Z,96856.69
2023-05-12T04:33:09.344Z,96865.50
2023-05-12T04:35:11.952Z,96863.84
2023-05-12T04:37:14.550Z,96858.53
2023-05-12T04:39:17.131Z,96859.28
2023-05-12T04:41:19.665Z,96868.91
2023-05-12T04:45:29.076Z,96873.06
2023-05-12T04:47:31.757Z,96866.88
2023-05-12T04:49:34.377Z,96870.28
2023-05-12T04:51:42.095Z,96878.88
2023-05-12T04:53:44.736Z,96875.59
2023-05-12T04:55:47.342Z,96875.59
2023-05-12T04:57:49.949Z,96875.59
2023-05-12T04:59:53.893Z,96876.44
2023-05-12T05:01:56.512Z,96875.41
2023-05-12T05:03:59.217Z,96876.19
2023-05-12T05:06:01.859Z,96879.56
2023-05-12T05:08:04.458Z,96875.94
2023-05-12T05:10:08.269Z,96876.34
2023-05-12T05:12:11.002Z,96878.03
2023-05-12T05:14:13.654Z,96878.97
2023-05-12T05:16:17.650Z,96883.19
2023-05-12T05:18:23.160Z,96884.81
2023-05-12T05:20:29.244Z,96886.41
2023-05-12T05:22:31.983Z,96888.94
2023-05-12T05:24:34.549Z,96887.09
2023-05-12T05:26:37.494Z,96893.09
2023-05-12T05:28:40.192Z,96891.25
2023-05-12T05:30:42.964Z,96894.63
2023-05-12T05:32:46.943Z,96895.69
2023-05-12T05:34:49.524Z,96894.94
2023-05-12T05:36:52.085Z,96895.44
2023-05-12T05:38:54.851Z,96894.59
2023-05-12T05:40:57.368Z,96889.34
2023-05-12T05:42:59.932Z,96897.03
2023-05-12T05:45:02.492Z,96899.41
2023-05-12T05:47:05.301Z,96882.97
2023-05-12T05:49:09.232Z,96889.78
2023-05-12T05:51:12.407Z,96898.41
2023-05-12T05:53:15.369Z,96902.56
2023-05-12T05:55:18.238Z,96900.72
2023-05-12T05:57:21.273Z,96902.31
2023-05-12T05:59:24.396Z,96898.69
2023-05-12T06:01:27.145Z,96902.91
2023-05-12T06:03:29.955Z,96903.75
2023-05-12T06:05:33.941Z,96904.44
2023-05-12T06:07:36.545Z,96902.91
2023-05-12T06:09:39.115Z,96911.53
2023-05-12T06:11:41.735Z,96910.53
2023-05-12T06:13:44.288Z,96909.19
2023-05-12T06:15:46.920Z,96915.88
2023-05-12T06:17:49.497Z,96914.03
2023-05-12T06:19:52.095Z,96916.41
2023-05-12T06:21:55.981Z,96918.63
2023-05-12T06:23:58.616Z,96910.63
2023-05-12T06:26:01.172Z,96908.34
2023-05-12T06:28:03.724Z,96920.97
2023-05-12T06:30:07.590Z,96914.78
2023-05-12T06:32:10.222Z,96917.16
2023-05-12T06:34:12.895Z,96919.63
2023-05-12T06:36:15.475Z,96917.59
2023-05-12T06:38:19.434Z,96917.44
2023-05-12T06:40:21.998Z,96911.59
2023-05-12T06:42:24.579Z,96916.66
2023-05-12T06:44:27.172Z,96919.03
2023-05-12T06:46:29.887Z,96915.91
2023-05-12T06:48:32.479Z,96919.13
2023-05-12T06:50:35.039Z,96922.59
2023-05-12T06:52:37.734Z,96925.41
2023-05-12T06:54:41.652Z,96919.03
2023-05-12T06:56:44.246Z,96916.19
2023-05-12T06:58:48.026Z,96910.63
2023-05-12T07:00:50.695Z,96915.47
2023-05-12T07:02:53.600Z,96915.06
2023-05-12T07:04:56.299Z,96915.72
2023-05-12T07:06:58.862Z,96915.81
2023-05-12T07:09:01.600Z,96917.34
2023-05-12T07:11:05.586Z,96917.19
2023-05-12T07:13:08.232Z,96914.25
2023-05-12T07:15:11.645Z,96913.81
2023-05-12T07:17:14.446Z,96912.06
2023-05-12T07:19:16.995Z,96915.28
2023-05-12T07:21:19.689Z,96914.97
2023-05-12T07:23:22.415Z,96920.88
2023-05-12T07:25:25.127Z,96919.66
2023-05-12T07:27:29.122Z,96920.00
2023-05-12T07:29:31.689Z,96911.31
2023-05-12T07:31:34.653Z,96911.91
2023-05-12T07:33:37.583Z,96908.19
2023-05-12T07:35:40.139Z,96911.41
2023-05-12T07:37:42.915Z,96909.63
2023-05-12T07:39:45.605Z,96905.16
2023-05-12T07:41:48.152Z,96913.69
2023-05-12T07:43:52.087Z,96908.69
2023-05-12T07:45:56.086Z,96911.13
2023-05-12T07:47:58.687Z,96908.19
2023-05-12T07:50:01.430Z,96907.97
2023-05-12T07:52:04.325Z,96910.34
2023-05-12T07:54:07.172Z,96907.44
2023-05-12T07:56:09.883Z,96910.75
2023-05-12T07:58:12.616Z,96903.56
2023-05-12T08:00:17.467Z,96905.78
2023-05-12T08:02:20.636Z,96909.31
2023-05-12T08:04:23.383Z,96910.56
2023-05-12T08:06:25.966Z,96915.47
2023-05-12T08:08:28.559Z,96908.19
2023-05-12T08:10:32.647Z,96900.41
2023-05-12T08:12:35.203Z,96908.59
2023-05-12T08:14:38.304Z,96907.31
2023-05-12T08:16:45.296Z,96910.69
2023-05-12T08:18:47.999Z,96909.75
2023-05-12T08:20:50.884Z,96907.22
2023-05-12T08:22:53.494Z,96902.63
2023-05-12T08:24:56.039Z,96906.22
2023-05-12T08:26:58.596Z,96898.81
2023-05-12T08:29:01.539Z,96907.44
2023-05-12T08:31:05.134Z,96913.69
2023-05-12T08:33:09.217Z,96905.59
2023-05-12T08:35:11.856Z,96914.13
2023-05-12T08:37:14.535Z,96902.50
2023-05-12T08:39:17.735Z,96910.19
2023-05-12T08:41:24.108Z,96915.19
2023-05-12T08:43:32.950Z,96915.44
2023-05-12T08:45:38.780Z,96917.69
2023-05-12T08:47:43.661Z,96915.09
2023-05-12T08:49:59.499Z,96915.75
2023-05-12T08:52:03.646Z,96913.88
2023-05-12T08:54:09.466Z,96915.66
2023-05-12T08:58:25.189Z,96912.75
2023-05-12T09:00:36.091Z,96911.81
2023-05-12T09:02:52.171Z,96909.00
2023-05-12T09:04:57.512Z,96920.03
2023-05-12T09:07:00.955Z,96912.94
2023-05-12T09:09:04.065Z,96913.88
2023-05-12T09:11:06.652Z,96920.56
2023-05-12T09:13:29.319Z,96907.78
2023-05-12T09:15:37.390Z,96918.00
2023-05-12T09:17:40.160Z,96917.06
2023-05-12T09:19:42.725Z,96917.56
2023-05-12T09:21:48.072Z,96912.22
2023-05-12T09:23:55.075Z,96915.41
2023-05-12T09:26:02.130Z,96915.22
2023-05-12T09:28:04.996Z,96919.53
2023-05-12T09:30:08.929Z,96920.09
2023-05-12T09:32:11.662Z,96914.66
2023-05-12T09:34:14.198Z,96916.28
2023-05-12T09:36:20.040Z,96904.72
2023-05-12T09:38:23.949Z,96905.28
2023-05-12T09:40:26.510Z,96912.25
2023-05-12T09:42:30.688Z,96912.19
2023-05-12T09:44:33.642Z,96909.34
2023-05-12T09:46:36.390Z,96914.59
2023-05-12T09:48:40.009Z,96911.13
2023-05-12T09:50:48.385Z,96908.25
2023-05-12T09:52:52.297Z,96911.63
2023-05-12T09:54:56.522Z,96913.19
2023-05-12T09:57:00.486Z,96915.63
2023-05-12T09:59:04.664Z,96907.75
2023-05-12T10:01:21.651Z,96901.03
2023-05-12T10:03:27.489Z,96904.31
2023-05-12T10:05:32.015Z,96912.19
2023-05-12T10:07:35.402Z,96910.38
2023-05-12T10:09:41.779Z,96912.28
2023-05-12T10:11:47.723Z,96911.13
2023-05-12T10:13:50.479Z,96905.72
2023-05-12T10:15:56.020Z,96902.78
2023-05-12T10:18:00.494Z,96907.94
2023-05-12T10:20:06.583Z,96904.47
2023-05-12T10:22:11.752Z,96909.34
2023-05-12T10:24:15.667Z,96911.03
2023-05-12T10:26:19.936Z,96899.69
2023-05-12T10:28:23.836Z,96901.28
2023-05-12T10:30:26.644Z,96904.66
2023-05-12T10:32:29.493Z,96905.78
2023-05-12T10:34:35.509Z,96904.56
2023-05-12T10:36:46.839Z,96905.41
2023-05-12T10:38:50.682Z,96905.41
2023-05-12T10:40:54.781Z,96902.69
2023-05-12T10:42:59.440Z,96905.59
2023-05-12T10:45:04.726Z,96905.59
2023-05-12T10:47:14.574Z,96904.66
2023-05-12T10:49:17.998Z,96910.00
2023-05-12T10:51:22.007Z,96906.63
2023-05-12T10:53:38.121Z,96913.75
2023-05-12T10:55:52.282Z,96914.88
2023-05-12T10:57:55.421Z,96918.56
2023-05-12T10:59:59.903Z,96917.78
2023-05-12T11:02:07.050Z,96915.38
2023-05-12T11:04:14.916Z,96917.78
2023-05-12T11:06:21.178Z,96921.38
2023-05-12T11:08:24.960Z,96921.56
2023-05-12T11:10:33.760Z,96920.72
2023-05-12T11:12:37.156Z,96927.44
2023-05-12T11:14:42.399Z,96923.94
2023-05-12T11:16:45.536Z,96923.91
2023-05-12T11:18:51.509Z,96919.88
2023-05-12T11:20:54.090Z,96922.88
2023-05-12T11:22:57.318Z,96926.63
2023-05-12T11:25:09.603Z,96925.59
2023-05-12T11:27:14.417Z,96928.56
2023-05-12T11:29:17.349Z,96927.66
2023-05-12T11:31:20.819Z,96928.28
2023-05-12T11:33:24.269Z,96931.97
2023-05-12T11:35:31.868Z,96922.75
2023-05-12T11:37:37.703Z,96924.94
2023-05-12T11:39:40.265Z,96923.09
2023-05-12T11:41:42.914Z,96926.47
2023-05-12T11:43:46.260Z,96923.56
2023-05-12T11:45:48.896Z,96926.28
2023-05-12T11:47:51.638Z,96926.75
2023-05-12T11:49:55.529Z,96931.59
2023-05-12T11:52:01.472Z,96933.03
2023-05-12T11:54:04.264Z,96937.16
2023-05-12T11:56:06.902Z,96934.44
2023-05-12T11:58:09.456Z,96931.44
2023-05-12T12:00:13.139Z,96931.91
2023-05-12T12:02:21.892Z,96929.81
2023-05-12T12:04:35.462Z,96938.34
2023-05-12T12:06:45.013Z,96945.09
2023-05-12T12:08:53.073Z,96943.16
2023-05-12T12:10:55.740Z,96939.56
2023-05-12T12:12:58.300Z,96930.13
2023-05-12T12:15:01.568Z,96942.88
2023-05-12T12:17:04.749Z,96937.03
2023-05-12T12:19:08.784Z,96941.94
2023-05-12T12:21:11.764Z,96939.56
2023-05-12T12:23:14.555Z,96936.59
2023-05-12T12:25:19.530Z,96936.75
2023-05-12T12:27:22.340Z,96942.38
2023-05-12T12:29:26.199Z,96933.19
2023-05-12T12:31:28.844Z,96932.78
2023-05-12T12:33:31.430Z,96940.00
2023-05-12T12:35:33.969Z,96935.97
2023-05-12T12:37:36.489Z,96937.94
2023-05-12T12:39:39.037Z,96943.63
2023-05-12T12:41:44.034Z,96944.03
2023-05-12T12:43:46.611Z,96935.63
2023-05-12T12:45:49.530Z,96934.41
2023-05-12T12:47:54.747Z,96934.59
2023-05-12T12:49:57.432Z,96934.00
2023-05-12T12:52:00.046Z,96935.50
2023-05-12T12:54:02.640Z,96942.63
2023-05-12T12:56:05.879Z,96945.16
2023-05-12T12:58:09.821Z,96945.16
2023-05-12T13:00:15.470Z,96941.16
2023-05-12T13:02:18.819Z,96949.16
2023-05-12T13:04:22.992Z,96945.94
2023-05-12T13:06:25.722Z,96948.88
2023-05-12T13:08:28.272Z,96958.53
2023-05-12T13:10:31.100Z,96957.06
2023-05-12T13:12:33.666Z,96957.22
2023-05-12T13:14:37.611Z,96956.56
2023-05-12T13:16:40.218Z,96960.25
2023-05-12T13:18:42.957Z,96957.72
2023-05-12T13:20:45.586Z,96956.97
2023-05-12T13:22:48.293Z,96960.63
2023-05-12T13:24:50.929Z,96959.03
2023-05-12T13:26:53.479Z,96960.91
2023-05-12T13:28:56.067Z,96955.75
2023-05-12T13:31:00.047Z,96958.50
2023-05-12T13:33:05.107Z,96957.84
2023-05-12T13:35:09.298Z,96956.22
2023-05-12T13:37:11.856Z,96947.53
2023-05-12T13:39:14.554Z,96950.25
2023-05-12T13:41:17.140Z,96956.44
2023-05-12T13:43:19.735Z,96951.16
2023-05-12T13:45:22.566Z,96950.31
2023-05-12T13:47:26.950Z,96946.31
2023-05-12T13:49:29.546Z,96950.81
2023-05-12T13:51:32.626Z,96949.97
2023-05-12T13:53:37.177Z,96949.97
2023-05-12T13:55:41.297Z,96952.78
2023-05-12T13:57:44.245Z,96944.81
2023-05-12T13:59:46.788Z,96944.81
2023-05-12T14:01:49.393Z,96950.06
2023-05-12T14:03:53.328Z,96948.19
2023-05-12T14:05:55.888Z,96944.50
2023-05-12T14:07:58.472Z,96950.72
2023-05-12T14:10:01.577Z,96947.13
2023-05-12T14:12:04.354Z,96944.50
2023-05-12T14:14:07.830Z,96943.69
2023-05-12T14:16:14.142Z,96945.56
2023-05-12T14:18:16.951Z,96948.19
2023-05-12T14:20:21.066Z,96936.94
2023-05-12T14:22:26.379Z,96936.06
2023-05-12T14:24:30.256Z,96940.50
2023-05-12T14:26:32.791Z,96945.75
2023-05-12T14:28:35.490Z,96937.13
2023-05-12T14:30:38.319Z,96938.91
2023-05-12T14:32:40.952Z,96942.38
2023-05-12T14:34:43.509Z,96944.34
2023-05-12T14:36:47.440Z,96947.06
2023-05-12T14:38:50.036Z,96946.22
2023-05-12T14:40:52.636Z,96940.09
2023-05-12T14:42:55.511Z,96938.69
2023-05-12T14:44:58.149Z,96942.69
2023-05-12T14:47:00.742Z,96936.50
2023-05-12T14:49:03.372Z,96939.88
2023-05-12T14:51:05.967Z,96940.56
2023-05-12T14:53:09.866Z,96943.06
2023-05-12T14:55:13.540Z,96940.56
2023-05-12T14:57:16.536Z,96946.56
2023-05-12T14:59:19.113Z,96942.13
2023-05-12T15:01:21.717Z,96946.47
2023-05-12T15:03:24.568Z,96941.13
2023-05-12T15:05:41.253Z,96946.19
2023-05-12T15:07:50.110Z,96945.19
2023-05-12T15:09:54.094Z,96952.00
2023-05-12T15:11:56.678Z,96948.47
2023-05-12T15:13:59.297Z,96947.41
2023-05-12T15:16:02.981Z,96949.03
2023-05-12T15:18:05.777Z,96950.59
2023-05-12T15:20:10.868Z,96949.50
2023-05-12T15:22:13.482Z,96947.72
2023-05-12T15:24:16.145Z,96945.00
2023-05-12T15:26:32.774Z,96948.38
2023-05-12T15:28:37.197Z,96953.53
2023-05-12T15:30:39.758Z,96948.09
2023-05-12T15:32:42.554Z,96951.38
2023-05-12T15:34:45.384Z,96952.94
2023-05-12T15:36:48.841Z,96954.56
2023-05-12T15:38:51.420Z,96952.59
2023-05-12T15:40:54.055Z,96954.09
2023-05-12T15:43:00.703Z,96951.91
2023-05-12T15:45:03.945Z,96952.75
2023-05-12T15:47:07.126Z,96946.72
2023-05-12T15:49:10.203Z,96941.16
2023-05-12T15:51:13.349Z,96937.75
2023-05-12T15:53:15.927Z,96937.78
2023-05-12T15:55:19.107Z,96938.53
2023-05-12T15:57:22.001Z,96938.28
2023-05-12T15:59:26.096Z,96942.09
2023-05-12T16:01:28.850Z,96942.84
2023-05-12T16:03:31.582Z,96947.91
2023-05-12T16:05:37.776Z,96940.97
2023-05-12T16:07:40.472Z,96943.91
2023-05-12T16:09:43.095Z,96950.19
2023-05-12T16:11:45.701Z,96950.31
2023-05-12T16:13:48.316Z,96946.06
2023-05-12T16:15:52.272Z,96946.19
2023-05-12T16:17:54.914Z,96943.66
2023-05-12T16:19:57.726Z,96941.22
2023-05-12T16:22:00.580Z,96946.59
2023-05-12T16:24:03.803Z,96941.34
2023-05-12T16:26:06.758Z,96948.19
2023-05-12T16:28:09.375Z,96944.75
2023-05-12T16:30:13.270Z,96942.94
2023-05-12T16:32:17.764Z,96937.50
2023-05-12T16:34:20.466Z,96939.09
2023-05-12T16:36:24.200Z,96937.38
2023-05-12T16:38:26.754Z,96936.47
2023-05-12T16:40:29.326Z,96936.53
2023-05-12T16:42:31.918Z,96936.47
2023-05-12T16:44:34.547Z,96937.31
2023-05-12T16:46:38.217Z,96934.69
2023-05-12T16:48:43.954Z,96942.56
2023-05-12T16:50:46.531Z,96942.56
2023-05-12T16:52:49.132Z,96943.31
2023-05-12T16:54:51.849Z,96934.97
2023-05-12T16:56:56.406Z,96937.50
2023-05-12T16:58:58.972Z,96932.41
2023-05-12T17:01:02.165Z,96943.50
2023-05-12T17:03:05.870Z,96937.50
2023-05-12T17:05:10.663Z,96944.25
2023-05-12T17:07:13.228Z,96943.22
2023-05-12T17:09:15.794Z,96946.69
2023-05-12T17:11:18.342Z,96949.50
2023-05-12T17:13:21.303Z,96952.88
2023-05-12T17:15:24.180Z,96952.25
2023-05-12T17:17:27.152Z,96952.31
2023-05-12T17:19:29.861Z,96956.66
2023-05-12T17:21:33.901Z,96961.84
2023-05-12T17:23:36.478Z,96961.84
2023-05-12T17:25:39.615Z,96966.41
2023-05-12T17:27:42.189Z,96964.53
2023-05-12T17:29:44.748Z,96965.38
2023-05-12T17:31:47.358Z,96970.66
2023-05-12T17:33:52.486Z,96969.78
2023-05-12T17:36:10.968Z,96966.31
2023-05-12T17:38:16.900Z,96975.06
2023-05-12T17:40:19.561Z,96974.31
2023-05-12T17:42:22.313Z,96977.09
2023-05-12T17:44:24.912Z,96982.47
2023-05-12T17:46:27.543Z,96981.28
2023-05-12T17:48:33.169Z,96988.41
2023-05-12T17:50:35.867Z,96989.47
2023-05-12T17:52:38.797Z,96995.69
2023-05-12T17:54:42.765Z,96992.41
2023-05-12T17:56:45.567Z,96996.91
2023-05-12T17:58:48.143Z,96997.81
2023-05-12T18:00:51.055Z,97003.47
2023-05-12T18:02:53.749Z,97003.84
2023-05-12T18:04:56.348Z,97006.59
2023-05-12T18:07:01.591Z,97000.00
2023-05-12T18:09:04.253Z,97009.69
2023-05-12T18:11:08.399Z,97006.13
2023-05-12T18:13:11.038Z,97005.38
2023-05-12T18:15:13.640Z,97012.50
2023-05-12T18:17:16.710Z,97007.34
2023-05-12T18:19:20.067Z,97009.97
2023-05-12T18:21:22.704Z,97016.19
2023-05-12T18:23:25.436Z,97016.28
2023-05-12T18:25:28.130Z,97017.28
2023-05-12T18:27:32.117Z,97020.03
2023-05-12T18:29:34.710Z,97027.03
2023-05-12T18:31:37.350Z,97021.22
2023-05-12T18:33:40.150Z,97023.97
2023-05-12T18:35:43.183Z,97021.44
2023-05-12T18:37:45.859Z,97022.44
2023-05-12T18:39:48.681Z,97023.41
2023-05-12T18:41:51.692Z,97034.00
2023-05-12T18:43:55.686Z,97027.88
2023-05-12T18:45:58.446Z,97035.88
2023-05-12T18:48:01.033Z,97027.22
2023-05-12T18:50:04.236Z,97029.97
2023-05-12T18:52:07.033Z,97040.66
2023-05-12T18:54:09.618Z,97037.16
2023-05-12T18:56:12.208Z,97027.63
2023-05-12T18:58:14.808Z,97043.53
2023-05-12T19:00:23.368Z,97042.72
2023-05-12T19:02:25.965Z,97041.84
2023-05-12T19:04:28.614Z,97046.25
2023-05-12T19:06:32.136Z,97039.00
2023-05-12T19:08:34.723Z,97045.97
2023-05-12T19:10:39.957Z,97047.75
2023-05-12T19:12:42.804Z,97051.13
2023-05-12T19:14:45.466Z,97054.72
2023-05-12T19:16:49.440Z,97062.56
2023-05-12T19:18:52.101Z,97062.56
2023-05-12T19:20:56.149Z,97066.13
2023-05-12T19:22:59.775Z,97060.88
2023-05-12T19:25:02.531Z,97063.59
2023-05-12T19:27:05.322Z,97067.16
2023-05-12T19:29:07.908Z,97067.25
2023-05-12T19:31:10.955Z,97072.56
2023-05-12T19:33:17.221Z,97074.38
2023-05-12T19:35:22.427Z,97070.91
2023-05-12T19:37:25.386Z,97080.53
2023-05-12T19:39:28.536Z,97071.00
2023-05-12T19:41:31.115Z,97077.16
2023-05-12T19:43:33.661Z,97073.72
2023-05-12T19:45:36.241Z,97069.38
2023-05-12T19:47:38.945Z,97080.06
2023-05-12T19:49:43.023Z,97073.13
2023-05-12T19:51:45.759Z,97071.44
2023-05-12T19:53:48.433Z,97074.91
2023-05-12T19:55:50.986Z,97071.50
2023-05-12T19:57:56.512Z,97082.94
2023-05-12T19:59:59.143Z,97089.09
2023-05-12T20:02:01.839Z,97084.78
2023-05-12T20:04:04.432Z,97090.91
2023-05-12T20:06:08.436Z,97092.75
2023-05-12T20:08:11.338Z,97095.38
2023-05-12T20:10:13.883Z,97085.72
2023-05-12T20:12:16.448Z,97088.44
2023-05-12T20:14:19.001Z,97090.22
2023-05-12T20:16:21.803Z,97090.22
2023-05-12T20:18:24.736Z,97090.13
2023-05-12T20:20:27.379Z,97098.09
2023-05-12T20:22:31.778Z,97095.63
2023-05-12T20:24:34.365Z,97096.56
2023-05-12T20:26:37.118Z,97099.28
2023-05-12T20:28:39.691Z,97099.28
2023-05-12T20:30:42.238Z,97101.06
2023-05-12T20:32:45.176Z,97104.63
2023-05-12T20:34:48.097Z,97101.44
2023-05-12T20:36:50.751Z,97109.22
2023-05-12T20:38:54.672Z,97105.81
2023-05-12T20:40:57.272Z,97101.44
2023-05-12T20:42:59.866Z,97111.25
2023-05-12T20:45:02.456Z,97106.81
2023-05-12T20:47:05.338Z,97105.06
2023-05-12T20:49:07.949Z,97108.63
2023-05-12T20:51:11.704Z,97102.53
2023-05-12T20:53:14.325Z,97104.28
2023-05-12T20:55:18.289Z,97106.81
2023-05-12T20:57:21.067Z,97096.44
2023-05-12T20:59:24.407Z,97099.03
2023-05-12T21:01:27.023Z,97099.91
2023-05-12T21:03:29.686Z,97103.47
2023-05-12T21:05:32.425Z,97104.28
2023-05-12T21:07:35.011Z,97107.00
2023-05-12T21:09:37.592Z,97107.88
2023-05-12T21:11:41.919Z,97104.38
2023-05-12T21:13:44.572Z,97105.34
2023-05-12T21:15:47.137Z,97114.13
2023-05-12T21:17:49.758Z,97118.53
2023-05-12T21:19:52.390Z,97115.91
2023-05-12T21:21:54.997Z,97121.22
2023-05-12T21:23:57.550Z,97120.41
2023-05-12T21:26:00.289Z,97121.31
2023-05-12T21:28:04.470Z,97123.94
2023-05-12T21:30:08.688Z,97118.69
2023-05-12T21:32:11.282Z,97117.00
2023-05-12T21:34:13.931Z,97114.47
2023-05-12T21:36:16.535Z,97115.34
2023-05-12T21:38:20.663Z,97120.63
2023-05-12T21:40:23.397Z,97118.97
2023-05-12T21:42:26.298Z,97116.34
2023-05-12T21:44:30.282Z,97113.72
2023-05-12T21:46:33.385Z,97119.03
2023-05-12T21:48:35.959Z,97123.44
2023-05-12T21:50:38.534Z,97119.13
2023-05-12T21:52:41.156Z,97123.53
2023-05-12T21:54:43.945Z,97120.06
2023-05-12T21:56:46.533Z,97121.00
2023-05-12T21:58:49.368Z,97118.47
2023-05-12T22:00:53.513Z,97116.66
2023-05-12T22:02:56.481Z,97118.28
2023-05-12T22:04:59.106Z,97118.19
2023-05-12T22:07:01.739Z,97125.97
2023-05-12T22:09:05.040Z,97123.34
2023-05-12T22:11:07.638Z,97119.97
2023-05-12T22:13:10.389Z,97125.97
2023-05-12T22:15:13.065Z,97121.59
2023-05-12T22:17:16.944Z,97125.06
2023-05-12T22:19:19.546Z,97124.22
2023-05-12T22:21:22.344Z,97122.44
2023-05-12T22:23:25.026Z,97126.84
2023-05-12T22:25:27.666Z,97126.84
2023-05-12T22:27:30.250Z,97124.31
2023-05-12T22:29:32.809Z,97127.00
2023-05-12T22:31:38.180Z,97124.38
2023-05-12T22:33:42.232Z,97121.09
2023-05-12T22:35:44.849Z,97123.78
2023-05-12T22:37:47.455Z,97122.34
2023-05-12T22:39:52.351Z,97128.50
2023-05-12T22:41:54.903Z,97124.22
2023-05-12T22:43:57.497Z,97119.91
2023-05-12T22:46:00.053Z,97124.47
2023-05-12T22:48:02.712Z,97121.75
2023-05-12T22:50:07.757Z,97121.75
2023-05-12T22:52:10.338Z,97121.84
2023-05-12T22:54:12.962Z,97127.00
2023-05-12T22:56:15.530Z,97121.75
2023-05-12T22:58:18.103Z,97121.66
2023-05-12T23:00:21.416Z,97130.38
2023-05-12T23:02:24.228Z,97123.34
2023-05-12T23:04:27.060Z,97129.53
2023-05-12T23:06:31.093Z,97125.16
2023-05-12T23:08:33.668Z,97124.28
2023-05-12T23:10:36.264Z,97119.91
2023-05-12T23:12:39.498Z,97126.91
2023-05-12T23:14:42.100Z,97125.16
2023-05-12T23:16:44.683Z,97120.81
2023-05-12T23:18:47.365Z,97117.38
2023-05-12T23:20:49.991Z,97117.44
2023-05-12T23:22:53.897Z,97120.03
2023-05-12T23:24:58.220Z,97113.97
2023-05-12T23:27:00.839Z,97128.94
2023-05-12T23:29:04.065Z,97129.03
2023-05-12T23:31:06.642Z,97120.41
2023-05-12T23:33:09.257Z,97121.34
2023-05-12T23:35:11.938Z,97118.03
2023-05-12T23:37:14.577Z,97116.31
2023-05-12T23:39:18.613Z,97112.13
2023-05-12T23:41:21.934Z,97115.81
2023-05-12T23:43:24.511Z,97119.38
2023-05-12T23:45:27.150Z,97116.81
2023-05-12T23:47:29.756Z,97121.53
2023-05-12T23:49:32.370Z,97121.63
2023-05-12T23:51:35.664Z,97112.19
2023-05-12T23:53:38.224Z,97114.78
2023-05-12T23:55:42.318Z,97122.66
2023-05-12T23:57:44.907Z,97116.56
2023-05-12T23:59:47.464Z,97115.69
